createdAt,value
2023-05-22T00:01:26.827Z,13.80
2023-05-22T00:04:22.084Z,13.70
2023-05-22T00:06:49.846Z,13.70
2023-05-22T00:09:17.824Z,13.60
2023-05-22T00:11:58.032Z,13.60
2023-05-22T00:14:28.433Z,13.50
2023-05-22T00:16:56.737Z,13.50
2023-05-22T00:19:31.014Z,13.50
2023-05-22T00:21:59.196Z,13.40
2023-05-22T00:24:27.124Z,13.30
2023-05-22T00:26:54.562Z,13.30
2023-05-22T00:29:22.209Z,13.20
2023-05-22T00:31:50.028Z,13.10
2023-05-22T00:34:20.397Z,13.10
2023-05-22T00:36:48.600Z,13.10
2023-05-22T00:39:16.371Z,13.10
2023-05-22T00:42:13.566Z,13.00
2023-05-22T00:44:42.534Z,13.10
2023-05-22T00:47:10.111Z,13.10
2023-05-22T00:49:42.668Z,13.10
2023-05-22T00:52:10.830Z,13.10
2023-05-22T00:54:39.089Z,13.00
2023-05-22T00:57:16.098Z,13.00
2023-05-22T00:59:44.685Z,13.00
2023-05-22T01:02:13.813Z,13.00
2023-05-22T01:04:57.289Z,13.00
2023-05-22T01:07:28.241Z,13.00
2023-05-22T01:09:59.875Z,12.90
2023-05-22T01:13:07.538Z,12.90
2023-05-22T01:15:57.713Z,12.80
2023-05-22T01:18:49.339Z,12.70
2023-05-22T01:21:16.834Z,12.70
2023-05-22T01:28:14.038Z,12.70
2023-05-22T01:31:04.797Z,12.70
2023-05-22T01:33:38.625Z,12.60
2023-05-22T01:36:09.434Z,12.60
2023-05-22T01:38:44.809Z,12.60
2023-05-22T01:41:15.178Z,12.50
2023-05-22T01:43:46.730Z,12.40
2023-05-22T01:46:22.044Z,12.40
2023-05-22T01:48:51.736Z,12.40
2023-05-22T01:52:15.099Z,12.40
2023-05-22T01:55:08.191Z,12.40
2023-05-22T01:58:12.643Z,12.30
2023-05-22T02:00:44.187Z,12.30
2023-05-22T02:03:28.233Z,12.30
2023-05-22T02:05:59.282Z,12.30
2023-05-22T02:08:32.422Z,12.30
2023-05-22T02:11:01.042Z,12.30
2023-05-22T02:13:34.734Z,12.20
2023-05-22T02:16:05.709Z,12.20
2023-05-22T02:18:32.976Z,12.10
2023-05-22T02:21:05.822Z,12.10
2023-05-22T02:23:51.904Z,12.10
2023-05-22T02:26:24.658Z,12.00
2023-05-22T02:28:52.330Z,11.90
2023-05-22T02:31:23.235Z,11.80
2023-05-22T02:33:51.132Z,11.80
2023-05-22T02:36:24.473Z,11.80
2023-05-22T02:39:04.557Z,11.80
2023-05-22T02:41:34.744Z,11.80
2023-05-22T02:44:05.335Z,11.80
2023-05-22T02:46:43.489Z,11.80
2023-05-22T02:49:14.107Z,11.80
2023-05-22T02:51:48.061Z,11.70
2023-05-22T02:54:16.458Z,11.70
2023-05-22T02:56:44.117Z,11.70
2023-05-22T02:59:15.088Z,11.70
2023-05-22T03:01:45.560Z,11.60
2023-05-22T03:04:14.517Z,11.50
2023-05-22T03:06:46.800Z,11.60
2023-05-22T03:09:21.974Z,11.60
2023-05-22T03:11:49.156Z,11.60
2023-05-22T03:14:17.220Z,11.60
2023-05-22T03:16:47.636Z,11.50
2023-05-22T03:19:18.518Z,11.40
2023-05-22T03:21:58.714Z,11.30
2023-05-22T03:24:32.794Z,11.30
2023-05-22T03:27:03.297Z,11.30
2023-05-22T03:29:33.807Z,11.40
2023-05-22T03:32:11.775Z,11.30
2023-05-22T03:34:40.051Z,11.30
2023-05-22T03:37:15.964Z,11.30
2023-05-22T03:39:47.092Z,11.30
2023-05-22T03:42:16.995Z,11.30
2023-05-22T03:44:44.778Z,11.30
2023-05-22T03:47:12.021Z,11.30
2023-05-22T03:49:42.306Z,11.30
2023-05-22T03:52:14.355Z,11.30
2023-05-22T03:54:53.861Z,11.30
2023-05-22T03:57:21.368Z,11.30
2023-05-22T03:59:48.912Z,11.40
2023-05-22T04:02:20.022Z,11.40
2023-05-22T04:04:56.146Z,11.50
2023-05-22T04:07:26.349Z,11.60
2023-05-22T04:09:53.421Z,11.70
2023-05-22T04:12:29.941Z,11.80
2023-05-22T04:14:57.615Z,11.90
2023-05-22T04:17:36.113Z,12.00
2023-05-22T04:20:05.633Z,12.10
2023-05-22T04:22:33.359Z,12.20
2023-05-22T04:25:01.036Z,12.30
2023-05-22T04:27:30.236Z,12.40
2023-05-22T04:30:00.274Z,12.40
2023-05-22T04:32:27.937Z,12.60
2023-05-22T04:34:58.972Z,12.70
2023-05-22T04:37:28.981Z,12.80
2023-05-22T04:39:59.013Z,12.90
2023-05-22T04:42:28.361Z,13.00
2023-05-22T04:44:58.300Z,13.10
2023-05-22T04:47:25.388Z,13.10
2023-05-22T04:49:52.499Z,13.20
2023-05-22T04:52:19.564Z,13.30
2023-05-22T04:54:46.994Z,13.40
2023-05-22T04:57:17.435Z,13.50
2023-05-22T04:59:45.641Z,13.70
2023-05-22T05:02:12.704Z,13.80
2023-05-22T05:04:41.464Z,13.90
2023-05-22T05:07:09.116Z,14.00
2023-05-22T05:09:36.175Z,14.10
2023-05-22T05:12:03.638Z,14.30
2023-05-22T05:14:30.722Z,14.80
2023-05-22T05:16:58.878Z,16.70
2023-05-22T05:19:26.334Z,19.20
2023-05-22T05:21:54.604Z,21.50
2023-05-22T05:24:21.808Z,23.60
2023-05-22T05:26:51.054Z,25.30
2023-05-22T05:29:18.074Z,26.80
2023-05-22T05:31:45.387Z,28.00
2023-05-22T05:34:13.606Z,29.00
2023-05-22T05:36:41.368Z,29.70
2023-05-22T05:39:09.669Z,30.00
2023-05-22T05:41:36.896Z,30.40
2023-05-22T05:44:04.400Z,30.90
2023-05-22T05:46:32.073Z,31.50
2023-05-22T05:48:59.331Z,32.00
2023-05-22T05:51:28.504Z,32.20
2023-05-22T05:53:55.647Z,31.70
2023-05-22T05:56:22.845Z,31.30
2023-05-22T05:58:49.861Z,31.60
2023-05-22T06:01:18.530Z,32.20
2023-05-22T06:03:46.038Z,32.90
2023-05-22T06:06:14.204Z,33.40
2023-05-22T06:08:42.479Z,33.70
2023-05-22T06:11:09.684Z,34.10
2023-05-22T06:13:36.712Z,34.30
2023-05-22T06:16:06.757Z,34.30
2023-05-22T06:18:34.093Z,34.60
2023-05-22T06:21:01.169Z,34.70
2023-05-22T06:23:28.248Z,34.90
2023-05-22T06:25:55.826Z,35.10
2023-05-22T06:28:23.120Z,35.20
2023-05-22T06:30:50.323Z,35.60
2023-05-22T06:33:17.605Z,35.20
2023-05-22T06:35:44.731Z,35.00
2023-05-22T06:38:11.863Z,34.90
2023-05-22T06:40:39.052Z,34.70
2023-05-22T06:43:06.185Z,35.00
2023-05-22T06:45:33.338Z,34.80
2023-05-22T06:48:00.485Z,34.30
2023-05-22T06:50:27.601Z,33.90
2023-05-22T06:52:54.746Z,34.30
2023-05-22T06:55:22.100Z,34.40
2023-05-22T06:57:49.172Z,34.30
2023-05-22T07:00:20.196Z,34.40
2023-05-22T07:02:48.794Z,34.60
2023-05-22T07:05:15.996Z,34.90
2023-05-22T07:07:44.091Z,34.60
2023-05-22T07:10:11.507Z,34.30
2023-05-22T07:12:38.562Z,34.50
2023-05-22T07:15:06.145Z,34.70
2023-05-22T07:17:33.214Z,34.80
2023-05-22T07:20:00.404Z,34.70
2023-05-22T07:22:27.440Z,34.70
2023-05-22T07:24:55.798Z,34.60
2023-05-22T07:27:22.913Z,34.10
2023-05-22T07:29:50.124Z,34.40
2023-05-22T07:32:18.246Z,34.30
2023-05-22T07:34:45.956Z,34.20
2023-05-22T07:37:14.276Z,33.80
2023-05-22T07:39:41.409Z,34.20
2023-05-22T07:42:08.821Z,35.00
2023-05-22T07:44:36.202Z,33.60
2023-05-22T07:47:03.249Z,32.60
2023-05-22T07:49:30.380Z,32.00
2023-05-22T07:51:57.446Z,31.70
2023-05-22T07:54:24.629Z,31.30
2023-05-22T07:56:52.639Z,30.90
2023-05-22T07:59:21.770Z,30.50
2023-05-22T08:01:53.740Z,30.30
2023-05-22T08:04:21.317Z,30.10
2023-05-22T08:06:52.602Z,29.50
2023-05-22T08:09:21.471Z,29.50
2023-05-22T08:11:49.127Z,29.70
2023-05-22T08:14:16.312Z,29.90
2023-05-22T08:16:44.631Z,30.10
2023-05-22T08:19:11.962Z,30.10
2023-05-22T08:21:40.004Z,29.70
2023-05-22T08:24:08.583Z,29.80
2023-05-22T08:26:35.737Z,29.80
2023-05-22T08:29:02.809Z,29.80
2023-05-22T08:31:31.103Z,29.80
2023-05-22T08:34:02.731Z,29.70
2023-05-22T08:36:34.516Z,29.90
2023-05-22T08:39:02.037Z,30.10
2023-05-22T08:41:30.430Z,30.50
2023-05-22T08:43:58.814Z,30.60
2023-05-22T08:46:30.271Z,30.40
2023-05-22T08:48:58.814Z,29.80
2023-05-22T08:51:31.711Z,29.40
2023-05-22T08:54:01.283Z,29.50
2023-05-22T08:56:32.094Z,29.60
2023-05-22T08:59:01.695Z,29.80
2023-05-22T09:01:35.264Z,30.10
2023-05-22T09:04:03.707Z,30.40
2023-05-22T09:06:32.015Z,30.60
2023-05-22T09:09:03.933Z,30.80
2023-05-22T09:11:31.443Z,30.80
2023-05-22T09:14:11.853Z,30.80
2023-05-22T09:16:48.885Z,30.80
2023-05-22T09:19:16.499Z,30.80
2023-05-22T09:21:48.176Z,30.50
2023-05-22T09:24:15.599Z,30.20
2023-05-22T09:26:42.885Z,30.30
2023-05-22T09:29:10.093Z,30.40
2023-05-22T09:31:44.352Z,30.60
2023-05-22T09:34:14.396Z,30.50
2023-05-22T09:36:42.624Z,30.10
2023-05-22T09:39:13.867Z,29.60
2023-05-22T09:41:40.992Z,29.30
2023-05-22T09:44:16.761Z,29.00
2023-05-22T09:46:48.166Z,28.80
2023-05-22T09:49:17.072Z,28.40
2023-05-22T09:51:48.235Z,28.60
2023-05-22T09:54:16.559Z,28.70
2023-05-22T09:56:45.510Z,29.00
2023-05-22T09:59:14.627Z,29.40
2023-05-22T10:01:42.917Z,29.30
2023-05-22T10:04:14.507Z,29.10
2023-05-22T10:06:43.069Z,29.30
2023-05-22T10:09:19.699Z,29.40
2023-05-22T10:11:48.874Z,29.40
2023-05-22T10:14:16.824Z,29.40
2023-05-22T10:16:45.380Z,29.50
2023-05-22T10:19:13.871Z,29.50
2023-05-22T10:21:42.224Z,29.70
2023-05-22T10:24:10.911Z,29.60
2023-05-22T10:26:38.866Z,29.10
2023-05-22T10:29:12.141Z,29.10
2023-05-22T10:31:53.941Z,29.30
2023-05-22T10:34:40.224Z,29.40
2023-05-22T10:37:21.766Z,29.20
2023-05-22T10:40:02.410Z,29.50
2023-05-22T10:42:32.822Z,29.70
2023-05-22T10:45:04.722Z,30.10
2023-05-22T10:47:34.292Z,30.50
2023-05-22T10:50:05.784Z,31.00
2023-05-22T10:52:32.978Z,31.30
2023-05-22T10:55:01.828Z,31.60
2023-05-22T10:57:35.970Z,31.80
2023-05-22T11:00:15.759Z,32.00
2023-05-22T11:02:45.117Z,32.10
2023-05-22T11:05:21.781Z,32.00
2023-05-22T11:07:49.273Z,32.00
2023-05-22T11:10:44.828Z,32.00
2023-05-22T11:13:12.560Z,31.80
2023-05-22T11:15:45.653Z,31.60
2023-05-22T11:18:14.746Z,31.70
2023-05-22T11:20:42.360Z,31.80
2023-05-22T11:23:21.689Z,31.90
2023-05-22T11:25:51.980Z,31.90
2023-05-22T11:28:19.226Z,32.00
2023-05-22T11:30:47.475Z,32.10
2023-05-22T11:33:15.441Z,32.30
2023-05-22T11:35:44.716Z,32.40
2023-05-22T11:38:11.967Z,32.50
2023-05-22T11:40:39.336Z,32.50
2023-05-22T11:43:07.414Z,32.60
2023-05-22T11:45:37.913Z,32.60
2023-05-22T11:48:08.379Z,32.60
2023-05-22T11:53:08.252Z,32.60
2023-05-22T11:55:35.855Z,32.60
2023-05-22T11:58:03.068Z,32.60
2023-05-22T12:00:31.651Z,32.50
2023-05-22T12:02:59.522Z,32.40
2023-05-22T12:05:26.706Z,32.00
2023-05-22T12:07:53.949Z,31.80
2023-05-22T12:10:21.011Z,31.80
2023-05-22T12:12:48.373Z,32.00
2023-05-22T12:15:20.274Z,32.20
2023-05-22T12:17:47.474Z,32.40
2023-05-22T12:20:14.863Z,32.50
2023-05-22T12:22:43.564Z,32.60
2023-05-22T12:25:17.718Z,32.70
2023-05-22T12:27:46.132Z,32.90
2023-05-22T12:30:14.281Z,32.90
2023-05-22T12:32:46.904Z,32.90
2023-05-22T12:35:17.609Z,33.00
2023-05-22T12:37:51.869Z,32.60
2023-05-22T12:40:19.384Z,32.60
2023-05-22T12:42:47.858Z,32.70
2023-05-22T12:45:15.196Z,32.80
2023-05-22T12:47:42.390Z,32.90
2023-05-22T12:50:09.874Z,33.00
2023-05-22T12:52:36.958Z,33.00
2023-05-22T12:55:04.786Z,33.00
2023-05-22T12:57:31.828Z,33.00
2023-05-22T12:59:58.863Z,32.60
2023-05-22T13:02:26.241Z,32.50
2023-05-22T13:04:53.406Z,32.60
2023-05-22T13:07:20.747Z,32.60
2023-05-22T13:09:47.886Z,32.60
2023-05-22T13:12:15.105Z,32.60
2023-05-22T13:14:42.198Z,32.60
2023-05-22T13:17:09.397Z,32.50
2023-05-22T13:19:36.872Z,32.40
2023-05-22T13:22:05.063Z,32.40
2023-05-22T13:24:32.247Z,32.50
2023-05-22T13:26:59.449Z,32.30
2023-05-22T13:29:26.528Z,32.00
2023-05-22T13:31:53.681Z,32.10
2023-05-22T13:34:20.960Z,31.70
2023-05-22T13:36:48.270Z,31.70
2023-05-22T13:39:15.485Z,31.80
2023-05-22T13:41:42.666Z,31.80
2023-05-22T13:44:11.157Z,31.70
2023-05-22T13:46:40.604Z,31.60
2023-05-22T13:49:08.133Z,31.40
2023-05-22T13:51:35.312Z,31.30
2023-05-22T13:54:03.480Z,31.40
2023-05-22T13:56:30.711Z,31.40
2023-05-22T13:58:58.060Z,31.20
2023-05-22T14:01:25.199Z,31.20
2023-05-22T14:03:52.364Z,31.30
2023-05-22T14:06:19.456Z,31.10
2023-05-22T14:08:46.704Z,31.10
2023-05-22T14:11:13.786Z,31.40
2023-05-22T14:13:40.888Z,31.60
2023-05-22T14:16:08.149Z,31.70
2023-05-22T14:18:35.354Z,31.60
2023-05-22T14:21:04.671Z,31.50
2023-05-22T14:23:32.204Z,31.40
2023-05-22T14:25:59.316Z,31.40
2023-05-22T14:28:26.929Z,31.30
2023-05-22T14:30:54.069Z,31.20
2023-05-22T14:33:21.195Z,31.30
2023-05-22T14:35:48.849Z,31.30
2023-05-22T14:38:16.016Z,31.30
2023-05-22T14:40:43.261Z,31.40
2023-05-22T14:43:10.734Z,31.30
2023-05-22T14:45:37.919Z,30.90
2023-05-22T14:48:05.349Z,30.70
2023-05-22T14:50:32.620Z,30.60
2023-05-22T14:52:59.661Z,30.50
2023-05-22T14:55:28.370Z,30.60
2023-05-22T14:57:55.981Z,30.50
2023-05-22T15:00:25.285Z,30.40
2023-05-22T15:02:52.497Z,30.30
2023-05-22T15:05:19.755Z,30.50
2023-05-22T15:07:48.389Z,30.40
2023-05-22T15:10:17.082Z,30.30
2023-05-22T15:12:44.323Z,30.10
2023-05-22T15:15:11.907Z,30.10
2023-05-22T15:17:40.752Z,30.10
2023-05-22T15:20:11.670Z,30.30
2023-05-22T15:22:39.438Z,30.60
2023-05-22T15:25:08.616Z,30.70
2023-05-22T15:27:36.236Z,30.80
2023-05-22T15:30:10.065Z,30.80
2023-05-22T15:32:38.194Z,30.80
2023-05-22T15:35:06.812Z,30.70
2023-05-22T15:37:34.395Z,30.60
2023-05-22T15:40:02.214Z,30.30
2023-05-22T15:42:29.981Z,30.00
2023-05-22T15:44:59.041Z,29.70
2023-05-22T15:47:27.224Z,29.40
2023-05-22T15:49:54.307Z,29.40
2023-05-22T15:52:23.560Z,29.30
2023-05-22T15:54:50.692Z,29.20
2023-05-22T15:57:19.763Z,29.10
2023-05-22T15:59:51.075Z,29.10
2023-05-22T16:02:19.585Z,29.20
2023-05-22T16:04:47.282Z,29.20
2023-05-22T16:07:14.460Z,29.10
2023-05-22T16:09:43.522Z,29.10
2023-05-22T16:12:11.810Z,29.00
2023-05-22T16:14:40.229Z,29.10
2023-05-22T16:17:07.576Z,29.10
2023-05-22T16:19:34.975Z,29.10
2023-05-22T16:22:03.097Z,29.00
2023-05-22T16:24:30.213Z,28.80
2023-05-22T16:26:59.437Z,28.50
2023-05-22T16:29:26.828Z,28.30
2023-05-22T16:31:53.907Z,28.00
2023-05-22T16:34:21.028Z,27.80
2023-05-22T16:36:48.079Z,27.70
2023-05-22T16:39:15.898Z,27.60
2023-05-22T16:41:42.954Z,27.60
2023-05-22T16:44:10.016Z,27.50
2023-05-22T16:46:37.063Z,27.40
2023-05-22T16:49:04.252Z,27.30
2023-05-22T16:51:31.383Z,27.30
2023-05-22T16:53:58.927Z,27.30
2023-05-22T16:56:26.579Z,27.20
2023-05-22T16:58:53.972Z,27.10
2023-05-22T17:01:21.851Z,27.10
2023-05-22T17:03:49.328Z,27.10
2023-05-22T17:06:17.832Z,27.10
2023-05-22T17:08:46.092Z,27.00
2023-05-22T17:11:13.153Z,27.00
2023-05-22T17:13:40.229Z,26.90
2023-05-22T17:16:07.264Z,26.80
2023-05-22T17:18:34.341Z,26.60
2023-05-22T17:21:01.610Z,26.50
2023-05-22T17:23:28.821Z,26.40
2023-05-22T17:25:55.986Z,26.30
2023-05-22T17:28:25.388Z,26.20
2023-05-22T17:30:52.637Z,26.00
2023-05-22T17:33:19.811Z,25.70
2023-05-22T17:35:48.373Z,25.50
2023-05-22T17:38:15.754Z,25.50
2023-05-22T17:40:45.692Z,25.40
2023-05-22T17:43:16.730Z,25.30
2023-05-22T17:45:49.794Z,25.20
2023-05-22T17:48:27.350Z,25.00
2023-05-22T17:50:54.855Z,24.90
2023-05-22T17:53:27.188Z,24.70
2023-05-22T17:55:55.216Z,24.60
2023-05-22T17:58:30.166Z,24.50
2023-05-22T18:00:57.922Z,24.30
2023-05-22T18:03:26.590Z,24.10
2023-05-22T18:05:53.973Z,23.90
2023-05-22T18:08:22.143Z,23.80
2023-05-22T18:10:50.197Z,23.60
2023-05-22T18:13:20.053Z,23.50
2023-05-22T18:15:48.445Z,23.50
2023-05-22T18:18:16.901Z,23.40
2023-05-22T18:20:46.427Z,23.30
2023-05-22T18:23:15.208Z,23.20
2023-05-22T18:25:42.896Z,23.10
2023-05-22T18:28:13.221Z,22.90
2023-05-22T18:30:41.545Z,22.80
2023-05-22T18:33:12.828Z,22.60
2023-05-22T18:35:39.994Z,22.50
2023-05-22T18:38:08.068Z,22.50
2023-05-22T18:40:35.450Z,22.40
2023-05-22T18:43:02.585Z,22.30
2023-05-22T18:45:29.670Z,22.20
2023-05-22T18:47:57.963Z,22.10
2023-05-22T18:50:25.380Z,21.90
2023-05-22T18:52:52.466Z,21.80
2023-05-22T18:55:19.831Z,21.70
2023-05-22T18:57:46.958Z,21.60
2023-05-22T19:00:14.400Z,21.50
2023-05-22T19:02:41.584Z,21.40
2023-05-22T19:05:09.209Z,21.30
2023-05-22T19:07:36.395Z,21.20
2023-05-22T19:10:05.492Z,21.20
2023-05-22T19:12:34.261Z,21.20
2023-05-22T19:15:01.315Z,21.10
2023-05-22T19:17:28.551Z,21.10
2023-05-22T19:19:55.910Z,21.10
2023-05-22T19:22:24.323Z,21.00
2023-05-22T19:24:52.507Z,21.00
2023-05-22T19:27:19.600Z,20.90
2023-05-22T19:29:46.758Z,20.80
2023-05-22T19:32:14.401Z,20.70
2023-05-22T19:34:47.641Z,20.70
2023-05-22T19:37:14.745Z,20.60
2023-05-22T19:39:41.749Z,20.60
2023-05-22T19:42:10.890Z,20.60
2023-05-22T19:44:37.937Z,20.60
2023-05-22T19:47:05.237Z,20.60
2023-05-22T19:49:36.838Z,20.60
2023-05-22T19:52:06.810Z,20.50
2023-05-22T19:54:34.439Z,20.50
2023-05-22T19:57:02.362Z,20.50
2023-05-22T19:59:29.385Z,20.50
2023-05-22T20:01:56.483Z,20.50
2023-05-22T20:04:23.669Z,20.50
2023-05-22T20:06:50.971Z,20.50
2023-05-22T20:09:19.018Z,20.50
2023-05-22T20:11:46.255Z,20.50
2023-05-22T20:14:13.681Z,20.40
2023-05-22T20:16:40.809Z,20.40
2023-05-22T20:19:09.319Z,20.40
2023-05-22T20:21:36.725Z,20.30
2023-05-22T20:24:12.327Z,20.30
2023-05-22T20:26:39.349Z,20.20
2023-05-22T20:29:06.562Z,20.20
2023-05-22T20:31:33.619Z,20.20
2023-05-22T20:34:06.393Z,20.20
2023-05-22T20:36:33.401Z,20.10
2023-05-22T20:39:00.486Z,20.10
2023-05-22T20:41:27.949Z,20.10
2023-05-22T20:43:54.994Z,20.10
2023-05-22T20:46:27.961Z,20.00
2023-05-22T20:48:55.086Z,20.00
2023-05-22T20:51:22.337Z,20.00
2023-05-22T20:53:52.647Z,19.90
2023-05-22T20:56:19.658Z,19.80
2023-05-22T20:58:48.818Z,19.80
2023-05-22T21:01:15.996Z,19.80
2023-05-22T21:03:43.075Z,19.70
2023-05-22T21:06:21.695Z,19.70
2023-05-22T21:08:50.148Z,19.60
2023-05-22T21:11:18.775Z,19.60
2023-05-22T21:13:45.818Z,19.50
2023-05-22T21:16:12.934Z,19.50
2023-05-22T21:18:40.140Z,19.50
2023-05-22T21:21:07.208Z,19.50
2023-05-22T21:23:34.249Z,19.40
2023-05-22T21:26:02.413Z,19.40
2023-05-22T21:28:29.591Z,19.40
2023-05-22T21:30:56.712Z,19.30
2023-05-22T21:33:23.774Z,19.30
2023-05-22T21:35:52.896Z,19.20
2023-05-22T21:38:19.923Z,19.20
2023-05-22T21:40:46.995Z,19.20
2023-05-22T21:43:15.032Z,19.20
2023-05-22T21:45:42.122Z,19.10
2023-05-22T21:48:10.167Z,19.10
2023-05-22T21:50:37.180Z,19.10
2023-05-22T21:53:04.278Z,19.10
2023-05-22T21:55:31.439Z,19.10
2023-05-22T21:57:59.481Z,19.00
2023-05-22T22:00:28.637Z,19.00
2023-05-22T22:02:57.606Z,18.90
2023-05-22T22:05:27.656Z,18.90
2023-05-22T22:07:54.697Z,18.90
2023-05-22T22:10:22.369Z,18.80
2023-05-22T22:12:49.882Z,18.70
2023-05-22T22:15:17.296Z,18.70
2023-05-22T22:17:44.385Z,18.60
2023-05-22T22:20:11.778Z,18.60
2023-05-22T22:22:40.391Z,18.50
2023-05-22T22:25:07.900Z,18.50
2023-05-22T22:27:34.949Z,18.40
2023-05-22T22:30:03.498Z,18.40
2023-05-22T22:32:30.636Z,18.40
2023-05-22T22:34:59.782Z,18.30
2023-05-22T22:37:26.815Z,18.30
2023-05-22T22:39:53.851Z,18.30
2023-05-22T22:42:21.948Z,18.20
2023-05-22T22:44:48.992Z,18.10
2023-05-22T22:47:16.020Z,18.10
2023-05-22T22:49:44.174Z,18.00
2023-05-22T22:52:11.184Z,17.90
2023-05-22T22:54:38.373Z,17.90
2023-05-22T22:57:05.628Z,17.80
2023-05-22T22:59:33.826Z,17.80
2023-05-22T23:02:01.096Z,17.70
2023-05-22T23:04:28.440Z,17.70
2023-05-22T23:06:57.674Z,17.80
2023-05-22T23:09:25.099Z,17.70
2023-05-22T23:11:52.258Z,17.60
2023-05-22T23:14:20.491Z,17.60
2023-05-22T23:16:47.544Z,17.50
2023-05-22T23:19:14.751Z,17.50
2023-05-22T23:21:41.874Z,17.50
2023-05-22T23:24:10.205Z,17.50
2023-05-22T23:26:37.315Z,17.50
2023-05-22T23:29:04.371Z,17.50
2023-05-22T23:31:31.955Z,17.50
2023-05-22T23:33:59.431Z,17.50
2023-05-22T23:36:26.625Z,17.50
2023-05-22T23:38:53.709Z,17.50
2023-05-22T23:41:20.814Z,17.50
2023-05-22T23:43:47.990Z,17.50
2023-05-22T23:46:15.107Z,17.50
2023-05-22T23:48:43.066Z,17.50
2023-05-22T23:51:14.664Z,17.40
2023-05-22T23:53:42.531Z,17.40
2023-05-22T23:56:10.297Z,17.40
2023-05-22T23:58:37.930Z,17.40
